sensor_id;sensor_type;location;lat;lon;timestamp;pressure;altitude;pressure_sealevel;temperature;humidity
5500;BME280;2772;42.700;23.304;2023-05-08T00:01:16;95288.44;;;16.44;100.00
5500;BME280;2772;42.700;23.304;2023-05-08T00:03:43;95292.91;;;16.40;100.00
5500;BME280;2772;42.700;23.304;2023-05-08T00:06:11;95294.47;;;16.29;100.00
5500;BME280;2772;42.700;23.304;2023-05-08T00:08:37;95289.88;;;16.30;100.00
5500;BME280;2772;42.700;23.304;2023-05-08T00:11:04;95286.63;;;16.24;100.00
5500;BME280;2772;42.700;23.304;2023-05-08T00:13:31;95292.13;;;16.28;100.00
5500;BME280;2772;42.700;23.304;2023-05-08T00:15:58;95293.34;;;16.18;100.00
5500;BME280;2772;42.700;23.304;2023-05-08T00:18:24;95297.94;;;16.18;100.00
5500;BME280;2772;42.700;23.304;2023-05-08T00:20:51;95290.34;;;16.20;100.00
5500;BME280;2772;42.700;23.304;2023-05-08T00:23:19;95292.91;;;16.16;100.00
5500;BME280;2772;42.700;23.304;2023-05-08T00:25:47;95297.72;;;16.11;100.00
5500;BME280;2772;42.700;23.304;2023-05-08T00:28:14;95294.72;;;16.12;100.00
5500;BME280;2772;42.700;23.304;2023-05-08T00:30:40;95301.75;;;16.17;100.00
5500;BME280;2772;42.700;23.304;2023-05-08T00:33:07;95308.47;;;16.11;100.00
5500;BME280;2772;42.700;23.304;2023-05-08T00:35:33;95302.97;;;16.07;100.00
5500;BME280;2772;42.700;23.304;2023-05-08T00:38:00;95303.91;;;16.11;100.00
5500;BME280;2772;42.700;23.304;2023-05-08T00:40:54;95306.69;;;16.03;100.00
5500;BME280;2772;42.700;23.304;2023-05-08T00:43:31;95299.63;;;15.98;100.00
5500;BME280;2772;42.700;23.304;2023-05-08T00:46:04;95304.41;;;15.80;100.00
5500;BME280;2772;42.700;23.304;2023-05-08T00:48:33;95301.47;;;15.61;100.00
5500;BME280;2772;42.700;23.304;2023-05-08T00:51:15;95307.84;;;15.57;100.00
5500;BME280;2772;42.700;23.304;2023-05-08T00:53:55;95305.13;;;15.45;100.00
5500;BME280;2772;42.700;23.304;2023-05-08T00:56:23;95305.34;;;15.40;100.00
5500;BME280;2772;42.700;23.304;2023-05-08T00:58:51;95314.88;;;15.49;100.00
5500;BME280;2772;42.700;23.304;2023-05-08T01:01:17;95312.84;;;15.46;100.00
5500;BME280;2772;42.700;23.304;2023-05-08T01:03:44;95311.53;;;15.32;100.00
5500;BME280;2772;42.700;23.304;2023-05-08T01:06:11;95308.94;;;15.23;100.00
5500;BME280;2772;42.700;23.304;2023-05-08T01:08:38;95309.72;;;15.24;100.00
5500;BME280;2772;42.700;23.304;2023-05-08T01:11:12;95317.91;;;15.27;100.00
5500;BME280;2772;42.700;23.304;2023-05-08T01:14:00;95311.97;;;15.22;100.00
5500;BME280;2772;42.700;23.304;2023-05-08T01:16:37;95308.63;;;15.25;100.00
5500;BME280;2772;42.700;23.304;2023-05-08T01:19:17;95317.56;;;15.29;100.00
5500;BME280;2772;42.700;23.304;2023-05-08T01:21:54;95316.81;;;15.28;100.00
5500;BME280;2772;42.700;23.304;2023-05-08T01:24:53;95314.56;;;15.30;100.00
5500;BME280;2772;42.700;23.304;2023-05-08T01:30:45;95319.34;;;15.25;100.00
5500;BME280;2772;42.700;23.304;2023-05-08T01:33:19;95311.63;;;15.23;100.00
5500;BME280;2772;42.700;23.304;2023-05-08T01:35:50;95305.59;;;15.26;100.00
5500;BME280;2772;42.700;23.304;2023-05-08T01:38:21;95305.00;;;15.21;100.00
5500;BME280;2772;42.700;23.304;2023-05-08T01:40:53;95300.06;;;15.11;100.00
5500;BME280;2772;42.700;23.304;2023-05-08T01:43:27;95297.13;;;15.04;100.00
5500;BME280;2772;42.700;23.304;2023-05-08T01:45:56;95296.56;;;14.98;100.00
5500;BME280;2772;42.700;23.304;2023-05-08T01:48:29;95293.53;;;15.00;100.00
5500;BME280;2772;42.700;23.304;2023-05-08T01:51:02;95292.03;;;15.11;100.00
5500;BME280;2772;42.700;23.304;2023-05-08T01:53:35;95293.22;;;15.01;100.00
5500;BME280;2772;42.700;23.304;2023-05-08T01:56:07;95294.25;;;15.09;100.00
5500;BME280;2772;42.700;23.304;2023-05-08T01:58:36;95306.41;;;15.06;100.00
5500;BME280;2772;42.700;23.304;2023-05-08T02:01:04;95299.94;;;14.87;100.00
5500;BME280;2772;42.700;23.304;2023-05-08T02:03:33;95300.53;;;14.72;100.00
5500;BME280;2772;42.700;23.304;2023-05-08T02:06:00;95293.59;;;14.71;100.00
5500;BME280;2772;42.700;23.304;2023-05-08T02:08:28;95294.72;;;14.70;100.00
5500;BME280;2772;42.700;23.304;2023-05-08T02:10:56;95300.53;;;14.72;100.00
5500;BME280;2772;42.700;23.304;2023-05-08T02:13:24;95299.50;;;14.64;100.00
5500;BME280;2772;42.700;23.304;2023-05-08T02:15:53;95297.41;;;14.70;100.00
5500;BME280;2772;42.700;23.304;2023-05-08T02:18:22;95302.75;;;14.70;100.00
5500;BME280;2772;42.700;23.304;2023-05-08T02:20:52;95302.94;;;14.65;100.00
5500;BME280;2772;42.700;23.304;2023-05-08T02:23:22;95304.31;;;14.71;100.00
5500;BME280;2772;42.700;23.304;2023-05-08T02:25:50;95299.81;;;14.83;100.00
5500;BME280;2772;42.700;23.304;2023-05-08T02:28:18;95301.13;;;14.77;100.00
5500;BME280;2772;42.700;23.304;2023-05-08T02:30:46;95304.13;;;14.76;100.00
5500;BME280;2772;42.700;23.304;2023-05-08T02:33:15;95304.13;;;14.76;100.00
5500;BME280;2772;42.700;23.304;2023-05-08T02:35:43;95305.06;;;14.80;100.00
5500;BME280;2772;42.700;23.304;2023-05-08T02:38:14;95301.34;;;14.72;100.00
5500;BME280;2772;42.700;23.304;2023-05-08T02:40:45;95310.56;;;14.63;100.00
5500;BME280;2772;42.700;23.304;2023-05-08T02:43:11;95309.44;;;14.64;100.00
5500;BME280;2772;42.700;23.304;2023-05-08T02:45:42;95312.59;;;14.66;100.00
5500;BME280;2772;42.700;23.304;2023-05-08T02:48:13;95317.84;;;14.54;100.00
5500;BME280;2772;42.700;23.304;2023-05-08T02:50:49;95315.75;;;14.39;100.00
5500;BME280;2772;42.700;23.304;2023-05-08T02:53:24;95309.75;;;14.42;100.00
5500;BME280;2772;42.700;23.304;2023-05-08T02:55:55;95311.91;;;14.48;100.00
5500;BME280;2772;42.700;23.304;2023-05-08T02:58:28;95316.75;;;14.55;100.00
5500;BME280;2772;42.700;23.304;2023-05-08T03:01:01;95317.09;;;14.53;100.00
5500;BME280;2772;42.700;23.304;2023-05-08T03:03:36;95310.47;;;14.51;100.00
5500;BME280;2772;42.700;23.304;2023-05-08T03:06:07;95315.25;;;14.45;100.00
5500;BME280;2772;42.700;23.304;2023-05-08T03:08:39;95320.81;;;14.61;100.00
5500;BME280;2772;42.700;23.304;2023-05-08T03:11:08;95314.78;;;14.64;100.00
5500;BME280;2772;42.700;23.304;2023-05-08T03:13:39;95319.38;;;14.63;100.00
5500;BME280;2772;42.700;23.304;2023-05-08T03:16:10;95316.69;;;14.63;100.00
5500;BME280;2772;42.700;23.304;2023-05-08T03:18:44;95318.59;;;14.63;100.00
5500;BME280;2772;42.700;23.304;2023-05-08T03:21:15;95320.31;;;14.67;100.00
5500;BME280;2772;42.700;23.304;2023-05-08T03:23:45;95325.53;;;14.64;100.00
5500;BME280;2772;42.700;23.304;2023-05-08T03:26:16;95325.78;;;14.71;100.00
5500;BME280;2772;42.700;23.304;2023-05-08T03:28:46;95322.13;;;14.75;100.00
5500;BME280;2772;42.700;23.304;2023-05-08T03:31:14;95331.88;;;14.80;100.00
5500;BME280;2772;42.700;23.304;2023-05-08T03:33:44;95332.78;;;14.84;100.00
5500;BME280;2772;42.700;23.304;2023-05-08T03:36:11;95325.25;;;14.77;100.00
5500;BME280;2772;42.700;23.304;2023-05-08T03:38:39;95335.00;;;14.82;100.00
5500;BME280;2772;42.700;23.304;2023-05-08T03:41:07;95332.25;;;14.90;100.00
5500;BME280;2772;42.700;23.304;2023-05-08T03:43:35;95329.25;;;14.92;100.00
5500;BME280;2772;42.700;23.304;2023-05-08T03:46:04;95328.06;;;15.01;100.00
5500;BME280;2772;42.700;23.304;2023-05-08T03:48:31;95320.34;;;15.00;100.00
5500;BME280;2772;42.700;23.304;2023-05-08T03:51:00;95323.94;;;15.04;100.00
5500;BME280;2772;42.700;23.304;2023-05-08T03:53:28;95324.59;;;15.01;100.00
5500;BME280;2772;42.700;23.304;2023-05-08T03:55:55;95334.66;;;15.04;100.00
5500;BME280;2772;42.700;23.304;2023-05-08T03:58:27;95335.59;;;15.08;100.00
5500;BME280;2772;42.700;23.304;2023-05-08T04:01:04;95333.94;;;15.15;100.00
5500;BME280;2772;42.700;23.304;2023-05-08T04:03:42;95339.06;;;15.08;100.00
5500;BME280;2772;42.700;23.304;2023-05-08T04:06:15;95332.25;;;15.11;100.00
5500;BME280;2772;42.700;23.304;2023-05-08T04:08:48;95339.31;;;15.15;100.00
5500;BME280;2772;42.700;23.304;2023-05-08T04:11:24;95338.84;;;15.13;100.00
5500;BME280;2772;42.700;23.304;2023-05-08T04:14:02;95348.28;;;15.19;100.00
5500;BME280;2772;42.700;23.304;2023-05-08T04:16:35;95350.09;;;15.07;100.00
5500;BME280;2772;42.700;23.304;2023-05-08T04:19:08;95344.63;;;15.03;100.00
5500;BME280;2772;42.700;23.304;2023-05-08T04:21:38;95360.97;;;14.90;100.00
5500;BME280;2772;42.700;23.304;2023-05-08T04:24:09;95357.78;;;15.17;100.00
5500;BME280;2772;42.700;23.304;2023-05-08T04:26:38;95360.84;;;15.27;100.00
5500;BME280;2772;42.700;23.304;2023-05-08T04:29:07;95358.63;;;15.29;100.00
5500;BME280;2772;42.700;23.304;2023-05-08T04:31:34;95357.69;;;15.46;100.00
5500;BME280;2772;42.700;23.304;2023-05-08T04:34:02;95358.41;;;15.55;100.00
5500;BME280;2772;42.700;23.304;2023-05-08T04:36:30;95352.38;;;15.58;100.00
5500;BME280;2772;42.700;23.304;2023-05-08T04:38:58;95362.47;;;15.61;100.00
5500;BME280;2772;42.700;23.304;2023-05-08T04:41:25;95354.97;;;15.66;100.00
5500;BME280;2772;42.700;23.304;2023-05-08T04:43:52;95354.44;;;15.73;100.00
5500;BME280;2772;42.700;23.304;2023-05-08T04:46:20;95351.19;;;15.79;100.00
5500;BME280;2772;42.700;23.304;2023-05-08T04:48:48;95348.75;;;15.86;100.00
5500;BME280;2772;42.700;23.304;2023-05-08T04:51:15;95345.16;;;15.82;100.00
5500;BME280;2772;42.700;23.304;2023-05-08T04:53:42;95342.81;;;15.93;100.00
5500;BME280;2772;42.700;23.304;2023-05-08T04:56:08;95350.47;;;16.03;100.00
5500;BME280;2772;42.700;23.304;2023-05-08T04:58:35;95345.88;;;16.16;100.00
5500;BME280;2772;42.700;23.304;2023-05-08T05:01:03;95347.44;;;16.29;100.00
5500;BME280;2772;42.700;23.304;2023-05-08T05:03:31;95346.56;;;16.37;100.00
5500;BME280;2772;42.700;23.304;2023-05-08T05:05:59;95347.81;;;16.39;100.00
5500;BME280;2772;42.700;23.304;2023-05-08T05:08:26;95335.25;;;16.43;100.00
5500;BME280;2772;42.700;23.304;2023-05-08T05:10:53;95332.09;;;16.41;100.00
5500;BME280;2772;42.700;23.304;2023-05-08T05:13:19;95333.78;;;16.34;100.00
5500;BME280;2772;42.700;23.304;2023-05-08T05:15:46;95333.44;;;16.35;100.00
5500;BME280;2772;42.700;23.304;2023-05-08T05:18:15;95331.00;;;16.42;100.00
5500;BME280;2772;42.700;23.304;2023-05-08T05:20:43;95334.59;;;16.46;100.00
5500;BME280;2772;42.700;23.304;2023-05-08T05:23:10;95333.47;;;16.47;100.00
5500;BME280;2772;42.700;23.304;2023-05-08T05:25:37;95334.00;;;16.65;100.00
5500;BME280;2772;42.700;23.304;2023-05-08T05:28:04;95329.53;;;16.69;100.00
5500;BME280;2772;42.700;23.304;2023-05-08T05:30:30;95333.00;;;16.69;100.00
5500;BME280;2772;42.700;23.304;2023-05-08T05:32:57;95330.41;;;16.73;100.00
5500;BME280;2772;42.700;23.304;2023-05-08T05:35:24;95336.66;;;16.77;100.00
5500;BME280;2772;42.700;23.304;2023-05-08T05:37:52;95336.03;;;16.80;100.00
5500;BME280;2772;42.700;23.304;2023-05-08T05:40:19;95336.78;;;16.80;100.00
5500;BME280;2772;42.700;23.304;2023-05-08T05:42:48;95329.38;;;16.89;100.00
5500;BME280;2772;42.700;23.304;2023-05-08T05:45:15;95337.63;;;17.08;100.00
5500;BME280;2772;42.700;23.304;2023-05-08T05:47:44;95334.34;;;17.15;100.00
5500;BME280;2772;42.700;23.304;2023-05-08T05:50:14;95334.41;;;17.30;100.00
5500;BME280;2772;42.700;23.304;2023-05-08T05:52:41;95337.38;;;17.41;100.00
5500;BME280;2772;42.700;23.304;2023-05-08T05:55:09;95339.97;;;17.50;100.00
5500;BME280;2772;42.700;23.304;2023-05-08T05:57:36;95339.53;;;17.48;100.00
5500;BME280;2772;42.700;23.304;2023-05-08T06:00:04;95331.09;;;17.49;100.00
5500;BME280;2772;42.700;23.304;2023-05-08T06:02:31;95319.31;;;17.41;100.00
5500;BME280;2772;42.700;23.304;2023-05-08T06:04:58;95322.44;;;17.56;100.00
5500;BME280;2772;42.700;23.304;2023-05-08T06:07:25;95323.63;;;17.58;100.00
5500;BME280;2772;42.700;23.304;2023-05-08T06:09:52;95317.47;;;17.58;100.00
5500;BME280;2772;42.700;23.304;2023-05-08T06:12:20;95310.63;;;17.76;100.00
5500;BME280;2772;42.700;23.304;2023-05-08T06:14:47;95318.22;;;17.86;100.00
5500;BME280;2772;42.700;23.304;2023-05-08T06:17:16;95314.38;;;17.87;100.00
5500;BME280;2772;42.700;23.304;2023-05-08T06:19:44;95313.00;;;17.93;100.00
5500;BME280;2772;42.700;23.304;2023-05-08T06:22:14;95320.66;;;18.06;100.00
5500;BME280;2772;42.700;23.304;2023-05-08T06:24:41;95316.94;;;18.11;100.00
5500;BME280;2772;42.700;23.304;2023-05-08T06:27:08;95316.72;;;18.19;100.00
5500;BME280;2772;42.700;23.304;2023-05-08T06:29:36;95317.34;;;18.13;100.00
5500;BME280;2772;42.700;23.304;2023-05-08T06:32:03;95318.72;;;18.22;100.00
5500;BME280;2772;42.700;23.304;2023-05-08T06:34:30;95323.72;;;18.20;99.99
5500;BME280;2772;42.700;23.304;2023-05-08T06:36:56;95322.66;;;18.25;100.00
5500;BME280;2772;42.700;23.304;2023-05-08T06:39:23;95326.41;;;18.20;100.00
5500;BME280;2772;42.700;23.304;2023-05-08T06:41:50;95325.06;;;18.30;100.00
5500;BME280;2772;42.700;23.304;2023-05-08T06:44:16;95324.69;;;18.43;99.86
5500;BME280;2772;42.700;23.304;2023-05-08T06:46:44;95323.06;;;18.58;97.93
5500;BME280;2772;42.700;23.304;2023-05-08T06:49:11;95319.69;;;18.61;97.44
5500;BME280;2772;42.700;23.304;2023-05-08T06:51:38;95324.25;;;18.76;95.32
5500;BME280;2772;42.700;23.304;2023-05-08T06:54:05;95322.50;;;18.83;94.66
5500;BME280;2772;42.700;23.304;2023-05-08T06:56:32;95323.13;;;18.77;96.94
5500;BME280;2772;42.700;23.304;2023-05-08T06:58:59;95319.97;;;18.90;95.40
5500;BME280;2772;42.700;23.304;2023-05-08T07:01:26;95331.38;;;18.84;95.86
5500;BME280;2772;42.700;23.304;2023-05-08T07:03:54;95326.38;;;18.67;97.09
5500;BME280;2772;42.700;23.304;2023-05-08T07:06:20;95335.06;;;18.76;97.19
5500;BME280;2772;42.700;23.304;2023-05-08T07:08:47;95344.75;;;18.96;96.64
5500;BME280;2772;42.700;23.304;2023-05-08T07:11:14;95340.56;;;18.98;94.23
5500;BME280;2772;42.700;23.304;2023-05-08T07:13:46;95344.50;;;19.20;93.47
5500;BME280;2772;42.700;23.304;2023-05-08T07:16:13;95338.44;;;19.27;92.99
5500;BME280;2772;42.700;23.304;2023-05-08T07:18:39;95327.41;;;19.32;91.08
5500;BME280;2772;42.700;23.304;2023-05-08T07:21:08;95335.22;;;19.37;89.35
5500;BME280;2772;42.700;23.304;2023-05-08T07:23:35;95333.31;;;19.37;88.67
5500;BME280;2772;42.700;23.304;2023-05-08T07:26:01;95334.66;;;19.28;89.60
5500;BME280;2772;42.700;23.304;2023-05-08T07:28:28;95339.50;;;19.22;90.34
5500;BME280;2772;42.700;23.304;2023-05-08T07:30:55;95333.72;;;19.20;92.60
5500;BME280;2772;42.700;23.304;2023-05-08T07:33:23;95328.63;;;19.34;92.18
5500;BME280;2772;42.700;23.304;2023-05-08T07:35:50;95323.78;;;19.43;92.21
5500;BME280;2772;42.700;23.304;2023-05-08T07:38:18;95329.38;;;19.35;92.45
5500;BME280;2772;42.700;23.304;2023-05-08T07:40:45;95337.44;;;19.31;90.51
5500;BME280;2772;42.700;23.304;2023-05-08T07:43:13;95332.88;;;19.35;89.65
5500;BME280;2772;42.700;23.304;2023-05-08T07:45:39;95329.66;;;19.49;89.11
5500;BME280;2772;42.700;23.304;2023-05-08T07:48:06;95336.06;;;19.60;86.36
5500;BME280;2772;42.700;23.304;2023-05-08T07:50:33;95340.97;;;19.73;88.32
5500;BME280;2772;42.700;23.304;2023-05-08T07:53:00;95339.63;;;19.86;85.59
5500;BME280;2772;42.700;23.304;2023-05-08T07:55:28;95346.44;;;19.99;84.23
5500;BME280;2772;42.700;23.304;2023-05-08T07:57:55;95338.25;;;20.15;82.16
5500;BME280;2772;42.700;23.304;2023-05-08T08:00:22;95336.25;;;20.34;82.61
5500;BME280;2772;42.700;23.304;2023-05-08T08:02:51;95328.72;;;20.47;81.51
5500;BME280;2772;42.700;23.304;2023-05-08T08:05:18;95335.59;;;20.41;84.08
5500;BME280;2772;42.700;23.304;2023-05-08T08:07:45;95338.00;;;20.72;83.59
5500;BME280;2772;42.700;23.304;2023-05-08T08:10:12;95338.88;;;20.80;83.93
5500;BME280;2772;42.700;23.304;2023-05-08T08:12:40;95327.75;;;20.85;82.64
5500;BME280;2772;42.700;23.304;2023-05-08T08:15:08;95335.03;;;20.81;81.69
5500;BME280;2772;42.700;23.304;2023-05-08T08:17:34;95334.81;;;20.93;80.89
5500;BME280;2772;42.700;23.304;2023-05-08T08:20:02;95326.41;;;20.98;82.26
5500;BME280;2772;42.700;23.304;2023-05-08T08:22:28;95326.13;;;21.06;84.21
5500;BME280;2772;42.700;23.304;2023-05-08T08:24:55;95335.19;;;21.17;84.30
5500;BME280;2772;42.700;23.304;2023-05-08T08:27:22;95340.75;;;21.28;83.26
5500;BME280;2772;42.700;23.304;2023-05-08T08:29:50;95328.84;;;21.36;82.47
5500;BME280;2772;42.700;23.304;2023-05-08T08:32:17;95331.34;;;21.51;81.49
5500;BME280;2772;42.700;23.304;2023-05-08T08:34:43;95319.94;;;21.68;80.22
5500;BME280;2772;42.700;23.304;2023-05-08T08:37:10;95312.59;;;21.72;80.69
5500;BME280;2772;42.700;23.304;2023-05-08T08:39:37;95316.13;;;21.73;80.50
5500;BME280;2772;42.700;23.304;2023-05-08T08:42:04;95304.84;;;21.71;80.19
5500;BME280;2772;42.700;23.304;2023-05-08T08:44:31;95308.44;;;21.78;79.94
5500;BME280;2772;42.700;23.304;2023-05-08T08:46:59;95303.81;;;21.79;79.30
5500;BME280;2772;42.700;23.304;2023-05-08T08:49:29;95299.47;;;21.74;79.78
5500;BME280;2772;42.700;23.304;2023-05-08T08:51:58;95300.25;;;21.75;80.78
5500;BME280;2772;42.700;23.304;2023-05-08T08:54:29;95297.25;;;21.83;80.78
5500;BME280;2772;42.700;23.304;2023-05-08T08:57:00;95289.91;;;21.84;80.88
5500;BME280;2772;42.700;23.304;2023-05-08T08:59:27;95284.50;;;21.84;80.97
5500;BME280;2772;42.700;23.304;2023-05-08T09:02:00;95271.31;;;21.86;81.20
5500;BME280;2772;42.700;23.304;2023-05-08T09:04:31;95281.78;;;21.84;81.94
5500;BME280;2772;42.700;23.304;2023-05-08T09:06:57;95279.06;;;21.84;81.43
5500;BME280;2772;42.700;23.304;2023-05-08T09:09:24;95272.81;;;21.80;81.37
5500;BME280;2772;42.700;23.304;2023-05-08T09:11:53;95274.38;;;21.81;81.88
5500;BME280;2772;42.700;23.304;2023-05-08T09:14:19;95261.16;;;21.79;82.51
5500;BME280;2772;42.700;23.304;2023-05-08T09:16:46;95249.19;;;21.80;82.33
5500;BME280;2772;42.700;23.304;2023-05-08T09:19:15;95245.78;;;21.87;81.73
5500;BME280;2772;42.700;23.304;2023-05-08T09:21:42;95238.72;;;21.79;82.72
5500;BME280;2772;42.700;23.304;2023-05-08T09:24:09;95231.03;;;21.88;82.44
5500;BME280;2772;42.700;23.304;2023-05-08T09:26:37;95235.69;;;21.87;83.03
5500;BME280;2772;42.700;23.304;2023-05-08T09:29:10;95235.41;;;22.03;83.03
5500;BME280;2772;42.700;23.304;2023-05-08T09:31:38;95240.13;;;22.10;83.14
5500;BME280;2772;42.700;23.304;2023-05-08T09:34:06;95251.41;;;22.12;82.64
5500;BME280;2772;42.700;23.304;2023-05-08T09:36:34;95246.31;;;22.07;82.84
5500;BME280;2772;42.700;23.304;2023-05-08T09:39:01;95252.81;;;21.95;83.71
5500;BME280;2772;42.700;23.304;2023-05-08T09:41:28;95259.84;;;22.00;84.17
5500;BME280;2772;42.700;23.304;2023-05-08T09:44:02;95272.19;;;21.97;84.16
5500;BME280;2772;42.700;23.304;2023-05-08T09:46:30;95275.66;;;21.94;84.60
5500;BME280;2772;42.700;23.304;2023-05-08T09:48:59;95272.47;;;21.85;84.75
5500;BME280;2772;42.700;23.304;2023-05-08T09:51:27;95265.09;;;21.82;84.58
5500;BME280;2772;42.700;23.304;2023-05-08T09:53:57;95261.16;;;21.79;85.00
5500;BME280;2772;42.700;23.304;2023-05-08T09:56:31;95264.34;;;21.85;84.96
5500;BME280;2772;42.700;23.304;2023-05-08T09:58:59;95251.28;;;21.98;85.13
5500;BME280;2772;42.700;23.304;2023-05-08T10:01:30;95246.41;;;22.21;83.88
5500;BME280;2772;42.700;23.304;2023-05-08T10:03:58;95249.66;;;22.37;83.31
5500;BME280;2772;42.700;23.304;2023-05-08T10:06:26;95247.00;;;22.47;82.73
5500;BME280;2772;42.700;23.304;2023-05-08T10:09:11;95254.81;;;22.52;82.09
5500;BME280;2772;42.700;23.304;2023-05-08T10:11:39;95246.34;;;22.64;82.00
5500;BME280;2772;42.700;23.304;2023-05-08T10:14:06;95254.59;;;22.78;82.65
5500;BME280;2772;42.700;23.304;2023-05-08T10:16:38;95243.78;;;22.85;81.34
5500;BME280;2772;42.700;23.304;2023-05-08T10:19:11;95243.84;;;22.99;80.81
5500;BME280;2772;42.700;23.304;2023-05-08T10:21:40;95249.66;;;23.01;80.33
5500;BME280;2772;42.700;23.304;2023-05-08T10:24:13;95245.31;;;22.86;81.25
5500;BME280;2772;42.700;23.304;2023-05-08T10:26:43;95236.84;;;22.95;80.86
5500;BME280;2772;42.700;23.304;2023-05-08T10:29:16;95238.75;;;22.94;81.37
5500;BME280;2772;42.700;23.304;2023-05-08T10:31:45;95227.84;;;22.87;81.56
5500;BME280;2772;42.700;23.304;2023-05-08T10:34:18;95230.16;;;22.82;83.12
5500;BME280;2772;42.700;23.304;2023-05-08T10:36:45;95230.88;;;22.72;84.02
5500;BME280;2772;42.700;23.304;2023-05-08T10:39:14;95236.63;;;22.60;84.33
5500;BME280;2772;42.700;23.304;2023-05-08T10:41:42;95219.06;;;22.43;86.29
5500;BME280;2772;42.700;23.304;2023-05-08T10:44:09;95217.03;;;22.33;86.13
5500;BME280;2772;42.700;23.304;2023-05-08T10:46:39;95213.06;;;22.17;85.84
5500;BME280;2772;42.700;23.304;2023-05-08T10:49:15;95214.09;;;22.02;88.33
5500;BME280;2772;42.700;23.304;2023-05-08T10:51:49;95210.16;;;21.95;89.76
5500;BME280;2772;42.700;23.304;2023-05-08T10:54:26;95207.47;;;21.95;90.23
5500;BME280;2772;42.700;23.304;2023-05-08T10:57:07;95201.63;;;21.90;90.49
5500;BME280;2772;42.700;23.304;2023-05-08T10:59:34;95206.13;;;21.75;90.37
5500;BME280;2772;42.700;23.304;2023-05-08T11:02:03;95206.94;;;21.79;88.95
5500;BME280;2772;42.700;23.304;2023-05-08T11:04:30;95202.34;;;21.83;88.60
5500;BME280;2772;42.700;23.304;2023-05-08T11:06:57;95191.56;;;21.94;88.38
5500;BME280;2772;42.700;23.304;2023-05-08T11:09:28;95185.91;;;22.13;89.39
5500;BME280;2772;42.700;23.304;2023-05-08T11:12:06;95191.34;;;22.17;84.19
5500;BME280;2772;42.700;23.304;2023-05-08T11:14:36;95179.31;;;22.14;83.14
5500;BME280;2772;42.700;23.304;2023-05-08T11:17:06;95175.91;;;22.31;82.57
5500;BME280;2772;42.700;23.304;2023-05-08T11:19:34;95174.06;;;22.39;81.58
5500;BME280;2772;42.700;23.304;2023-05-08T11:22:24;95172.94;;;22.50;78.81
5500;BME280;2772;42.700;23.304;2023-05-08T11:24:56;95170.94;;;22.44;78.66
5500;BME280;2772;42.700;23.304;2023-05-08T11:27:34;95163.31;;;22.60;78.84
5500;BME280;2772;42.700;23.304;2023-05-08T11:30:25;95158.34;;;22.72;77.61
5500;BME280;2772;42.700;23.304;2023-05-08T11:33:13;95157.53;;;22.72;77.73
5500;BME280;2772;42.700;23.304;2023-05-08T11:35:45;95154.84;;;22.68;75.52
5500;BME280;2772;42.700;23.304;2023-05-08T11:38:33;95154.44;;;22.70;76.63
5500;BME280;2772;42.700;23.304;2023-05-08T11:41:03;95150.97;;;22.73;75.03
5500;BME280;2772;42.700;23.304;2023-05-08T11:46:48;95141.31;;;22.82;75.65
5500;BME280;2772;42.700;23.304;2023-05-08T11:49:19;95123.81;;;22.76;74.22
5500;BME280;2772;42.700;23.304;2023-05-08T11:51:48;95126.56;;;22.87;75.32
5500;BME280;2772;42.700;23.304;2023-05-08T11:54:20;95120.03;;;23.12;74.19
5500;BME280;2772;42.700;23.304;2023-05-08T11:56:49;95118.53;;;23.36;72.45
5500;BME280;2772;42.700;23.304;2023-05-08T11:59:16;95113.91;;;23.54;71.07
5500;BME280;2772;42.700;23.304;2023-05-08T12:01:43;95101.47;;;23.64;71.37
5500;BME280;2772;42.700;23.304;2023-05-08T12:04:11;95115.47;;;23.73;70.85
5500;BME280;2772;42.700;23.304;2023-05-08T12:06:39;95113.88;;;23.72;70.83
5500;BME280;2772;42.700;23.304;2023-05-08T12:09:10;95109.22;;;23.72;69.95
5500;BME280;2772;42.700;23.304;2023-05-08T12:11:37;95100.69;;;23.81;71.21
5500;BME280;2772;42.700;23.304;2023-05-08T12:14:07;95113.09;;;24.10;67.38
5500;BME280;2772;42.700;23.304;2023-05-08T12:16:34;95095.22;;;24.16;64.81
5500;BME280;2772;42.700;23.304;2023-05-08T12:19:02;95104.13;;;24.23;64.60
5500;BME280;2772;42.700;23.304;2023-05-08T12:21:29;95095.56;;;24.35;62.52
5500;BME280;2772;42.700;23.304;2023-05-08T12:23:56;95098.25;;;24.42;63.17
5500;BME280;2772;42.700;23.304;2023-05-08T12:26:23;95093.53;;;24.57;63.63
5500;BME280;2772;42.700;23.304;2023-05-08T12:28:53;95088.03;;;24.74;63.09
5500;BME280;2772;42.700;23.304;2023-05-08T12:31:22;95096.59;;;24.73;60.82
5500;BME280;2772;42.700;23.304;2023-05-08T12:33:49;95088.00;;;24.78;62.01
5500;BME280;2772;42.700;23.304;2023-05-08T12:36:16;95088.81;;;24.64;61.79
5500;BME280;2772;42.700;23.304;2023-05-08T12:38:43;95090.38;;;24.69;61.57
5500;BME280;2772;42.700;23.304;2023-05-08T12:41:10;95086.88;;;24.61;62.40
5500;BME280;2772;42.700;23.304;2023-05-08T12:43:36;95075.66;;;24.45;63.42
5500;BME280;2772;42.700;23.304;2023-05-08T12:46:04;95085.44;;;24.32;64.13
5500;BME280;2772;42.700;23.304;2023-05-08T12:48:32;95097.13;;;24.19;63.71
5500;BME280;2772;42.700;23.304;2023-05-08T12:51:03;95088.13;;;24.36;62.61
5500;BME280;2772;42.700;23.304;2023-05-08T12:53:32;95086.16;;;24.54;62.79
5500;BME280;2772;42.700;23.304;2023-05-08T12:56:01;95075.25;;;24.54;60.42
5500;BME280;2772;42.700;23.304;2023-05-08T12:58:30;95078.31;;;24.59;60.35
5500;BME280;2772;42.700;23.304;2023-05-08T13:01:08;95068.63;;;24.58;60.12
5500;BME280;2772;42.700;23.304;2023-05-08T13:03:39;95084.53;;;24.74;59.73
5500;BME280;2772;42.700;23.304;2023-05-08T13:06:06;95101.63;;;24.78;59.74
5500;BME280;2772;42.700;23.304;2023-05-08T13:08:34;95090.56;;;24.09;77.69
5500;BME280;2772;42.700;23.304;2023-05-08T13:11:02;95088.25;;;23.69;82.20
5500;BME280;2772;42.700;23.304;2023-05-08T13:13:30;95095.63;;;23.55;85.16
5500;BME280;2772;42.700;23.304;2023-05-08T13:16:01;95105.28;;;23.20;87.62
5500;BME280;2772;42.700;23.304;2023-05-08T13:18:28;95096.34;;;23.13;89.02
5500;BME280;2772;42.700;23.304;2023-05-08T13:20:57;95097.91;;;23.10;89.17
5500;BME280;2772;42.700;23.304;2023-05-08T13:23:24;95106.06;;;23.07;88.71